KLM380 EIDW-EHAM
Flight info
| Callsign | KLM380 |
|---|---|
| Flight time | 1h 4m |
| Altitude | 35000 |
| Route | ENDEQ1E ENDEQ Q36 ALAVA Z195 MALUD UL975 WAL M16 DOLAS L603 LAMSO |
| Aircraft | A21N/M-SDE2E3FGHIRWXY/LB1 |
Departure
| Time | 2026-05-06 16:13 |
|---|---|
| Airport | Dublin Airport (EIDW) |
Arrival
| Time | 2026-05-06 17:18 |
|---|---|
| Airport | Amsterdam Airport Schiphol (EHAM) |
| Time | Latitude | Longitude | Altitude | Speed | Heading |
|---|---|---|---|---|---|
| 2026-05-06 15:48 | 53.42656 | -6.24692 | 228 ft | 0 kts | 143° |
| 2026-05-06 15:59 | 53.42672 | -6.24712 | 228 ft | 4 kts | 143° |
| 2026-05-06 15:59 | 53.42698 | -6.24735 | 231 ft | 4 kts | 174° |
| 2026-05-06 16:00 | 53.42724 | -6.24716 | 228 ft | 4 kts | 244° |
| 2026-05-06 16:00 | 53.42725 | -6.24711 | 228 ft | 0 kts | 245° |
| 2026-05-06 16:02 | 53.42725 | -6.24712 | 228 ft | 1 kts | 245° |
| 2026-05-06 16:02 | 53.42703 | -6.24781 | 229 ft | 9 kts | 236° |
| 2026-05-06 16:03 | 53.42664 | -6.24865 | 228 ft | 11 kts | 217° |
| 2026-05-06 16:03 | 53.42596 | -6.24873 | 228 ft | 7 kts | 191° |
| 2026-05-06 16:03 | 53.42559 | -6.24919 | 228 ft | 9 kts | 239° |
| 2026-05-06 16:03 | 53.42594 | -6.25028 | 228 ft | 13 kts | 333° |
| 2026-05-06 16:04 | 53.42678 | -6.25087 | 229 ft | 13 kts | 336° |
| 2026-05-06 16:04 | 53.42761 | -6.25151 | 229 ft | 13 kts | 332° |
| 2026-05-06 16:04 | 53.42782 | -6.25238 | 228 ft | 6 kts | 261° |
| 2026-05-06 16:04 | 53.42735 | -6.25356 | 229 ft | 12 kts | 228° |
| 2026-05-06 16:05 | 53.42661 | -6.25482 | 231 ft | 20 kts | 226° |
| 2026-05-06 16:05 | 53.42544 | -6.25683 | 228 ft | 25 kts | 226° |
| 2026-05-06 16:05 | 53.42424 | -6.25886 | 228 ft | 24 kts | 224° |
| 2026-05-06 16:05 | 53.42309 | -6.26087 | 228 ft | 23 kts | 230° |
| 2026-05-06 16:06 | 53.42270 | -6.26327 | 228 ft | 21 kts | 276° |
| 2026-05-06 16:06 | 53.42284 | -6.26570 | 228 ft | 21 kts | 275° |
| 2026-05-06 16:06 | 53.42299 | -6.26816 | 228 ft | 22 kts | 275° |
| 2026-05-06 16:06 | 53.42311 | -6.27079 | 228 ft | 23 kts | 274° |
| 2026-05-06 16:07 | 53.42325 | -6.27357 | 228 ft | 25 kts | 275° |
| 2026-05-06 16:07 | 53.42342 | -6.27652 | 228 ft | 26 kts | 275° |
| 2026-05-06 16:07 | 53.42361 | -6.27960 | 228 ft | 27 kts | 276° |
| 2026-05-06 16:07 | 53.42374 | -6.28221 | 228 ft | 21 kts | 276° |
| 2026-05-06 16:08 | 53.42389 | -6.28478 | 228 ft | 23 kts | 274° |
| 2026-05-06 16:08 | 53.42398 | -6.28651 | 228 ft | 13 kts | 275° |
| 2026-05-06 16:08 | 53.42405 | -6.28804 | 228 ft | 13 kts | 275° |
| 2026-05-06 16:08 | 53.42411 | -6.28955 | 228 ft | 13 kts | 266° |
| 2026-05-06 16:09 | 53.42374 | -6.29066 | 229 ft | 6 kts | 205° |
| 2026-05-06 16:09 | 53.42362 | -6.29071 | 229 ft | 0 kts | 192° |
| 2026-05-06 16:11 | 53.42351 | -6.29071 | 229 ft | 7 kts | 181° |
| 2026-05-06 16:11 | 53.42279 | -6.29064 | 233 ft | 9 kts | 169° |
| 2026-05-06 16:12 | 53.42251 | -6.29028 | 237 ft | 2 kts | 123° |
| 2026-05-06 16:12 | 53.42241 | -6.28973 | 238 ft | 8 kts | 96° |
| 2026-05-06 16:12 | 53.42240 | -6.28961 | 238 ft | 0 kts | 95° |
| 2026-05-06 16:13 | 53.42230 | -6.28777 | 239 ft | 43 kts | 95° |
| 2026-05-06 16:13 | 53.42184 | -6.27933 | 238 ft | 102 kts | 95° |
| 2026-05-06 16:13 | 53.42108 | -6.26416 | 298 ft | 148 kts | 97° |
| 2026-05-06 16:13 | 53.42024 | -6.24739 | 861 ft | 147 kts | 96° |
| 2026-05-06 16:14 | 53.41927 | -6.23037 | 1447 ft | 148 kts | 98° |
| 2026-05-06 16:14 | 53.41817 | -6.21168 | 1754 ft | 176 kts | 98° |
| 2026-05-06 16:14 | 53.41688 | -6.18969 | 2046 ft | 203 kts | 97° |
| 2026-05-06 16:14 | 53.41548 | -6.16508 | 2312 ft | 230 kts | 97° |
| 2026-05-06 16:15 | 53.41388 | -6.13643 | 2752 ft | 253 kts | 96° |
| 2026-05-06 16:15 | 53.41226 | -6.10704 | 3583 ft | 259 kts | 96° |
| 2026-05-06 16:15 | 53.41056 | -6.07635 | 4426 ft | 264 kts | 96° |
| 2026-05-06 16:15 | 53.40949 | -6.04523 | 5126 ft | 270 kts | 89° |
| 2026-05-06 16:16 | 53.41082 | -6.01375 | 5546 ft | 272 kts | 84° |
| 2026-05-06 16:16 | 53.41299 | -5.98215 | 5933 ft | 274 kts | 84° |
| 2026-05-06 16:16 | 53.41530 | -5.95024 | 6367 ft | 277 kts | 84° |
| 2026-05-06 16:16 | 53.41760 | -5.91787 | 7107 ft | 281 kts | 84° |
| 2026-05-06 16:17 | 53.41988 | -5.88517 | 7965 ft | 284 kts | 83° |
| 2026-05-06 16:17 | 53.42213 | -5.85248 | 8653 ft | 288 kts | 83° |
| 2026-05-06 16:17 | 53.42442 | -5.81894 | 8972 ft | 291 kts | 83° |
| 2026-05-06 16:17 | 53.42672 | -5.78514 | 9069 ft | 293 kts | 83° |
| 2026-05-06 16:18 | 53.42905 | -5.75086 | 9659 ft | 298 kts | 83° |
| 2026-05-06 16:18 | 53.43138 | -5.71611 | 10413 ft | 306 kts | 83° |
| 2026-05-06 16:18 | 53.43385 | -5.67939 | 10734 ft | 328 kts | 83° |
| 2026-05-06 16:18 | 53.43646 | -5.64030 | 11161 ft | 345 kts | 83° |
| 2026-05-06 16:19 | 53.43914 | -5.59991 | 11851 ft | 352 kts | 83° |
| 2026-05-06 16:19 | 53.44185 | -5.55871 | 12635 ft | 358 kts | 83° |
| 2026-05-06 16:19 | 53.44452 | -5.51690 | 13420 ft | 363 kts | 85° |
| 2026-05-06 16:19 | 53.44560 | -5.47409 | 14048 ft | 373 kts | 89° |
| 2026-05-06 16:20 | 53.44528 | -5.42985 | 14488 ft | 385 kts | 92° |
| 2026-05-06 16:20 | 53.44412 | -5.38463 | 15134 ft | 390 kts | 93° |
| 2026-05-06 16:20 | 53.44264 | -5.33900 | 15826 ft | 394 kts | 93° |
| 2026-05-06 16:20 | 53.44109 | -5.29292 | 16520 ft | 397 kts | 93° |
| 2026-05-06 16:21 | 53.43960 | -5.24644 | 17189 ft | 401 kts | 93° |
| 2026-05-06 16:21 | 53.43819 | -5.19948 | 17839 ft | 405 kts | 93° |
| 2026-05-06 16:21 | 53.43681 | -5.15214 | 18464 ft | 408 kts | 92° |
| 2026-05-06 16:21 | 53.43537 | -5.10432 | 18995 ft | 412 kts | 92° |
| 2026-05-06 16:22 | 53.43389 | -5.05613 | 19545 ft | 416 kts | 92° |
| 2026-05-06 16:22 | 53.43237 | -5.00755 | 20098 ft | 419 kts | 92° |
| 2026-05-06 16:22 | 53.43081 | -4.95861 | 20653 ft | 422 kts | 92° |
| 2026-05-06 16:22 | 53.42922 | -4.90930 | 21195 ft | 425 kts | 92° |
| 2026-05-06 16:23 | 53.42760 | -4.85960 | 21729 ft | 428 kts | 92° |
| 2026-05-06 16:23 | 53.42596 | -4.80965 | 22255 ft | 431 kts | 92° |
| 2026-05-06 16:23 | 53.42429 | -4.75924 | 22743 ft | 434 kts | 92° |
| 2026-05-06 16:23 | 53.42260 | -4.70915 | 23221 ft | 437 kts | 92° |
| 2026-05-06 16:24 | 53.42087 | -4.65808 | 23681 ft | 440 kts | 92° |
| 2026-05-06 16:24 | 53.41910 | -4.60664 | 24039 ft | 444 kts | 92° |
| 2026-05-06 16:24 | 53.41729 | -4.55472 | 24384 ft | 448 kts | 92° |
| 2026-05-06 16:24 | 53.41545 | -4.50261 | 24792 ft | 449 kts | 92° |
| 2026-05-06 16:25 | 53.41357 | -4.45016 | 25174 ft | 451 kts | 92° |
| 2026-05-06 16:25 | 53.41166 | -4.39755 | 25546 ft | 453 kts | 92° |
| 2026-05-06 16:25 | 53.40971 | -4.34462 | 25914 ft | 456 kts | 92° |
| 2026-05-06 16:25 | 53.40774 | -4.29149 | 26273 ft | 458 kts | 92° |
| 2026-05-06 16:26 | 53.40573 | -4.23818 | 26615 ft | 460 kts | 92° |
| 2026-05-06 16:26 | 53.40370 | -4.18459 | 26950 ft | 462 kts | 92° |
| 2026-05-06 16:26 | 53.40163 | -4.13076 | 27281 ft | 464 kts | 92° |
| 2026-05-06 16:26 | 53.39953 | -4.07674 | 27581 ft | 466 kts | 92° |
| 2026-05-06 16:27 | 53.39739 | -4.02234 | 27883 ft | 468 kts | 92° |
| 2026-05-06 16:27 | 53.39682 | -3.96788 | 28315 ft | 466 kts | 86° |
| 2026-05-06 16:27 | 53.39852 | -3.91384 | 28802 ft | 464 kts | 85° |
| 2026-05-06 16:27 | 53.40076 | -3.86005 | 29242 ft | 462 kts | 84° |
| 2026-05-06 16:28 | 53.40332 | -3.80650 | 29680 ft | 461 kts | 84° |
| 2026-05-06 16:28 | 53.40603 | -3.75311 | 30075 ft | 459 kts | 83° |
| 2026-05-06 16:28 | 53.40877 | -3.69977 | 30410 ft | 459 kts | 83° |
| 2026-05-06 16:28 | 53.41145 | -3.64655 | 30717 ft | 458 kts | 84° |
| 2026-05-06 16:29 | 53.41184 | -3.59305 | 31007 ft | 459 kts | 91° |
| 2026-05-06 16:29 | 53.41043 | -3.53960 | 31230 ft | 461 kts | 92° |
| 2026-05-06 16:29 | 53.40844 | -3.48592 | 31492 ft | 461 kts | 93° |
| 2026-05-06 16:29 | 53.40612 | -3.43246 | 31788 ft | 460 kts | 93° |
| 2026-05-06 16:30 | 53.40363 | -3.37912 | 32071 ft | 460 kts | 94° |
| 2026-05-06 16:30 | 53.40195 | -3.34367 | 32250 ft | 460 kts | 94° |
| 2026-05-06 16:30 | 53.39853 | -3.27227 | 32593 ft | 459 kts | 94° |
| 2026-05-06 16:30 | 53.39600 | -3.21892 | 32848 ft | 459 kts | 94° |
| 2026-05-06 16:31 | 53.39347 | -3.16571 | 33101 ft | 458 kts | 94° |
| 2026-05-06 16:31 | 53.39107 | -3.11251 | 33350 ft | 458 kts | 93° |
| 2026-05-06 16:31 | 53.38896 | -3.05941 | 33575 ft | 458 kts | 93° |
| 2026-05-06 16:31 | 53.38699 | -3.00602 | 33693 ft | 460 kts | 93° |
| 2026-05-06 16:32 | 53.38504 | -2.95234 | 33892 ft | 460 kts | 93° |
| 2026-05-06 16:32 | 53.38311 | -2.89960 | 34109 ft | 460 kts | 93° |
| 2026-05-06 16:32 | 53.38112 | -2.84624 | 34290 ft | 459 kts | 93° |
| 2026-05-06 16:32 | 53.37907 | -2.79288 | 34443 ft | 459 kts | 93° |
| 2026-05-06 16:33 | 53.37699 | -2.73951 | 34587 ft | 460 kts | 93° |
| 2026-05-06 16:33 | 53.37486 | -2.68607 | 34744 ft | 460 kts | 93° |
| 2026-05-06 16:33 | 53.37270 | -2.63263 | 34888 ft | 460 kts | 93° |
| 2026-05-06 16:34 | 53.36831 | -2.52552 | 35019 ft | 463 kts | 94° |
| 2026-05-06 16:34 | 53.36380 | -2.41806 | 35020 ft | 463 kts | 94° |
| 2026-05-06 16:35 | 53.35919 | -2.31058 | 35021 ft | 463 kts | 94° |
| 2026-05-06 16:35 | 53.35106 | -2.20379 | 35020 ft | 463 kts | 99° |
| 2026-05-06 16:36 | 53.34053 | -2.09741 | 35021 ft | 463 kts | 100° |
| 2026-05-06 16:36 | 53.32948 | -1.99128 | 35023 ft | 463 kts | 100° |
| 2026-05-06 16:37 | 53.31833 | -1.88519 | 35025 ft | 464 kts | 100° |
| 2026-05-06 16:37 | 53.30714 | -1.77884 | 35034 ft | 464 kts | 100° |
| 2026-05-06 16:38 | 53.29589 | -1.67269 | 35032 ft | 464 kts | 101° |
| 2026-05-06 16:38 | 53.28454 | -1.56652 | 35039 ft | 464 kts | 101° |
| 2026-05-06 16:39 | 53.27310 | -1.46052 | 35039 ft | 464 kts | 101° |
| 2026-05-06 16:39 | 53.26155 | -1.35459 | 35042 ft | 464 kts | 101° |
| 2026-05-06 16:40 | 53.24990 | -1.24864 | 35039 ft | 464 kts | 101° |
| 2026-05-06 16:40 | 53.23818 | -1.14292 | 35048 ft | 463 kts | 101° |
| 2026-05-06 16:41 | 53.22636 | -1.03722 | 35047 ft | 463 kts | 102° |
| 2026-05-06 16:41 | 53.21444 | -0.93153 | 35045 ft | 463 kts | 102° |
| 2026-05-06 16:42 | 53.20243 | -0.82592 | 35047 ft | 463 kts | 102° |
| 2026-05-06 16:42 | 53.19033 | -0.72041 | 35045 ft | 463 kts | 102° |
| 2026-05-06 16:43 | 53.17812 | -0.61486 | 35048 ft | 463 kts | 102° |
| 2026-05-06 16:43 | 53.16583 | -0.50948 | 35045 ft | 463 kts | 102° |
| 2026-05-06 16:44 | 53.15553 | -0.42184 | 35047 ft | 463 kts | 102° |
| 2026-05-06 16:44 | 53.14104 | -0.29950 | 35045 ft | 463 kts | 102° |
| 2026-05-06 16:45 | 53.12847 | -0.19426 | 35050 ft | 463 kts | 103° |
| 2026-05-06 16:45 | 53.11796 | -0.10688 | 35048 ft | 463 kts | 103° |
| 2026-05-06 16:46 | 53.10521 | -0.00167 | 35046 ft | 463 kts | 103° |
| 2026-05-06 16:46 | 53.09257 | 0.10188 | 35035 ft | 449 kts | 102° |
| 2026-05-06 16:47 | 53.08013 | 0.20297 | 35030 ft | 445 kts | 102° |
| 2026-05-06 16:47 | 53.06763 | 0.30372 | 35020 ft | 445 kts | 102° |
| 2026-05-06 16:48 | 53.05505 | 0.40434 | 35015 ft | 444 kts | 103° |
| 2026-05-06 16:48 | 53.04240 | 0.50486 | 35009 ft | 444 kts | 102° |
| 2026-05-06 16:49 | 53.02969 | 0.60514 | 35011 ft | 443 kts | 102° |
| 2026-05-06 16:49 | 53.01692 | 0.70525 | 35002 ft | 443 kts | 103° |
| 2026-05-06 16:50 | 53.00406 | 0.80523 | 34997 ft | 443 kts | 103° |
| 2026-05-06 16:50 | 52.99111 | 0.90528 | 34999 ft | 443 kts | 103° |
| 2026-05-06 16:51 | 52.97814 | 1.00531 | 34995 ft | 444 kts | 102° |
| 2026-05-06 16:51 | 52.96621 | 1.10592 | 34994 ft | 445 kts | 102° |
| 2026-05-06 16:52 | 52.95474 | 1.20681 | 34994 ft | 445 kts | 102° |
| 2026-05-06 16:52 | 52.94315 | 1.30760 | 34993 ft | 445 kts | 102° |
| 2026-05-06 16:53 | 52.93146 | 1.40763 | 34990 ft | 445 kts | 102° |
| 2026-05-06 16:53 | 52.91952 | 1.50852 | 34991 ft | 445 kts | 102° |
| 2026-05-06 16:54 | 52.90753 | 1.60899 | 34991 ft | 447 kts | 102° |
| 2026-05-06 16:54 | 52.89606 | 1.70444 | 34989 ft | 447 kts | 103° |
| 2026-05-06 16:55 | 52.88385 | 1.80533 | 34990 ft | 447 kts | 103° |
| 2026-05-06 16:55 | 52.87154 | 1.90628 | 34986 ft | 447 kts | 103° |
| 2026-05-06 16:56 | 52.85914 | 2.00720 | 34984 ft | 447 kts | 103° |
| 2026-05-06 16:56 | 52.84665 | 2.10809 | 34982 ft | 448 kts | 103° |
| 2026-05-06 16:57 | 52.83406 | 2.20911 | 34977 ft | 449 kts | 103° |
| 2026-05-06 16:57 | 52.82136 | 2.31018 | 34977 ft | 449 kts | 103° |
| 2026-05-06 16:58 | 52.80855 | 2.41138 | 34435 ft | 450 kts | 103° |
| 2026-05-06 16:58 | 52.80212 | 2.46196 | 33216 ft | 452 kts | 103° |
| 2026-05-06 16:58 | 52.79558 | 2.51318 | 31679 ft | 458 kts | 104° |
| 2026-05-06 16:58 | 52.78890 | 2.56520 | 30039 ft | 468 kts | 104° |
| 2026-05-06 16:59 | 52.78206 | 2.61814 | 28298 ft | 474 kts | 104° |
| 2026-05-06 16:59 | 52.77521 | 2.67109 | 27208 ft | 466 kts | 104° |
| 2026-05-06 16:59 | 52.76849 | 2.72304 | 26089 ft | 459 kts | 104° |
| 2026-05-06 16:59 | 52.76192 | 2.77362 | 25042 ft | 453 kts | 104° |
| 2026-05-06 17:00 | 52.75525 | 2.82472 | 23996 ft | 446 kts | 104° |
| 2026-05-06 17:00 | 52.74882 | 2.87376 | 22933 ft | 440 kts | 104° |
| 2026-05-06 17:00 | 52.74239 | 2.92273 | 21820 ft | 433 kts | 104° |
| 2026-05-06 17:00 | 52.73588 | 2.97080 | 20711 ft | 426 kts | 107° |
| 2026-05-06 17:01 | 52.72532 | 3.01575 | 19633 ft | 417 kts | 119° |
| 2026-05-06 17:01 | 52.71154 | 3.05698 | 18817 ft | 404 kts | 122° |
| 2026-05-06 17:01 | 52.69749 | 3.09684 | 17684 ft | 400 kts | 122° |
| 2026-05-06 17:01 | 52.68345 | 3.13638 | 16611 ft | 400 kts | 122° |
| 2026-05-06 17:02 | 52.66950 | 3.17572 | 16056 ft | 394 kts | 121° |
| 2026-05-06 17:02 | 52.65571 | 3.21472 | 15308 ft | 394 kts | 122° |
| 2026-05-06 17:02 | 52.64201 | 3.25348 | 14815 ft | 387 kts | 122° |
| 2026-05-06 17:02 | 52.62855 | 3.29155 | 14177 ft | 384 kts | 121° |
| 2026-05-06 17:03 | 52.61513 | 3.32948 | 13514 ft | 382 kts | 121° |
| 2026-05-06 17:03 | 52.60183 | 3.36702 | 12964 ft | 376 kts | 121° |
| 2026-05-06 17:03 | 52.58933 | 3.40430 | 12490 ft | 369 kts | 114° |
| 2026-05-06 17:03 | 52.58185 | 3.44422 | 12029 ft | 363 kts | 102° |
| 2026-05-06 17:04 | 52.57721 | 3.48454 | 11557 ft | 356 kts | 99° |
| 2026-05-06 17:04 | 52.57311 | 3.52439 | 11091 ft | 350 kts | 99° |
| 2026-05-06 17:04 | 52.56908 | 3.56356 | 10640 ft | 345 kts | 99° |
| 2026-05-06 17:04 | 52.56506 | 3.60214 | 10249 ft | 338 kts | 100° |
| 2026-05-06 17:05 | 52.56114 | 3.63923 | 10164 ft | 321 kts | 100° |
| 2026-05-06 17:05 | 52.55738 | 3.67451 | 10056 ft | 306 kts | 100° |
| 2026-05-06 17:05 | 52.55377 | 3.70813 | 9915 ft | 293 kts | 100° |
| 2026-05-06 17:05 | 52.55022 | 3.74104 | 9504 ft | 292 kts | 100° |
| 2026-05-06 17:06 | 52.54669 | 3.77374 | 9122 ft | 289 kts | 99° |
| 2026-05-06 17:06 | 52.54318 | 3.80604 | 8777 ft | 285 kts | 99° |
| 2026-05-06 17:06 | 52.53970 | 3.83799 | 8426 ft | 283 kts | 99° |
| 2026-05-06 17:06 | 52.53625 | 3.86958 | 8102 ft | 280 kts | 99° |
| 2026-05-06 17:07 | 52.53278 | 3.90128 | 7849 ft | 283 kts | 99° |
| 2026-05-06 17:07 | 52.52927 | 3.93314 | 7600 ft | 284 kts | 99° |
| 2026-05-06 17:07 | 52.52377 | 3.96415 | 7342 ft | 283 kts | 116° |
| 2026-05-06 17:07 | 52.51342 | 3.99139 | 7091 ft | 281 kts | 127° |
| 2026-05-06 17:08 | 52.50102 | 4.01596 | 6940 ft | 278 kts | 132° |
| 2026-05-06 17:08 | 52.48772 | 4.03888 | 6930 ft | 278 kts | 134° |
| 2026-05-06 17:08 | 52.47406 | 4.06129 | 6934 ft | 278 kts | 135° |
| 2026-05-06 17:08 | 52.46037 | 4.08368 | 6931 ft | 278 kts | 135° |
| 2026-05-06 17:09 | 52.44679 | 4.10625 | 6923 ft | 278 kts | 134° |
| 2026-05-06 17:09 | 52.43333 | 4.12904 | 6927 ft | 279 kts | 134° |
| 2026-05-06 17:09 | 52.41999 | 4.15197 | 6840 ft | 277 kts | 133° |
| 2026-05-06 17:09 | 52.40674 | 4.17498 | 6396 ft | 277 kts | 133° |
| 2026-05-06 17:10 | 52.39354 | 4.19797 | 5882 ft | 277 kts | 133° |
| 2026-05-06 17:10 | 52.38031 | 4.22104 | 5369 ft | 278 kts | 131° |
| 2026-05-06 17:10 | 52.36722 | 4.24385 | 4936 ft | 276 kts | 132° |
| 2026-05-06 17:10 | 52.35413 | 4.26663 | 4443 ft | 275 kts | 131° |
| 2026-05-06 17:11 | 52.34110 | 4.28924 | 4183 ft | 270 kts | 131° |
| 2026-05-06 17:11 | 52.32825 | 4.31151 | 3923 ft | 270 kts | 130° |
| 2026-05-06 17:11 | 52.31539 | 4.33382 | 3682 ft | 269 kts | 131° |
| 2026-05-06 17:11 | 52.30259 | 4.35600 | 3498 ft | 268 kts | 130° |
| 2026-05-06 17:12 | 52.28982 | 4.37809 | 3319 ft | 267 kts | 129° |
| 2026-05-06 17:12 | 52.27709 | 4.40009 | 3151 ft | 266 kts | 129° |
| 2026-05-06 17:12 | 52.26440 | 4.42203 | 2963 ft | 265 kts | 130° |
| 2026-05-06 17:12 | 52.25200 | 4.44340 | 2790 ft | 254 kts | 130° |
| 2026-05-06 17:13 | 52.24010 | 4.46385 | 2611 ft | 243 kts | 130° |
| 2026-05-06 17:13 | 52.22894 | 4.48335 | 2470 ft | 226 kts | 125° |
| 2026-05-06 17:13 | 52.22267 | 4.50534 | 2325 ft | 208 kts | 98° |
| 2026-05-06 17:13 | 52.22059 | 4.52755 | 2263 ft | 187 kts | 92° |
| 2026-05-06 17:14 | 52.22022 | 4.54770 | 2186 ft | 171 kts | 76° |
| 2026-05-06 17:14 | 52.22350 | 4.56624 | 2149 ft | 170 kts | 65° |
| 2026-05-06 17:14 | 52.22903 | 4.58315 | 2094 ft | 167 kts | 57° |
| 2026-05-06 17:14 | 52.23501 | 4.59882 | 2005 ft | 161 kts | 57° |
| 2026-05-06 17:15 | 52.24094 | 4.61406 | 1790 ft | 156 kts | 56° |
| 2026-05-06 17:15 | 52.24662 | 4.62865 | 1567 ft | 150 kts | 56° |
| 2026-05-06 17:15 | 52.25221 | 4.64305 | 1351 ft | 150 kts | 56° |
| 2026-05-06 17:15 | 52.25780 | 4.65742 | 1140 ft | 149 kts | 56° |
| 2026-05-06 17:16 | 52.26333 | 4.67162 | 951 ft | 147 kts | 56° |
| 2026-05-06 17:16 | 52.26866 | 4.68532 | 753 ft | 139 kts | 56° |
| 2026-05-06 17:16 | 52.27364 | 4.69811 | 582 ft | 131 kts | 56° |
| 2026-05-06 17:16 | 52.27863 | 4.71071 | 417 ft | 134 kts | 53° |
| 2026-05-06 17:17 | 52.28368 | 4.72355 | 295 ft | 134 kts | 53° |
| 2026-05-06 17:17 | 52.28869 | 4.73620 | 97 ft | 130 kts | 55° |
| 2026-05-06 17:17 | 52.29336 | 4.74816 | 22 ft | 118 kts | 57° |
| 2026-05-06 17:17 | 52.29720 | 4.75824 | 18 ft | 94 kts | 59° |
| 2026-05-06 17:18 | 52.30035 | 4.76651 | 18 ft | 78 kts | 57° |
| 2026-05-06 17:18 | 52.30233 | 4.77160 | 16 ft | 27 kts | 59° |
| 2026-05-06 17:18 | 52.30363 | 4.77360 | 16 ft | 25 kts | 25° |
| 2026-05-06 17:18 | 52.30467 | 4.77412 | 15 ft | 10 kts | 353° |
| 2026-05-06 17:19 | 52.30522 | 4.77410 | 15 ft | 6 kts | 16° |
| 2026-05-06 17:19 | 52.30561 | 4.77473 | 16 ft | 20 kts | 57° |
| 2026-05-06 17:19 | 52.30682 | 4.77587 | 16 ft | 20 kts | 7° |
| 2026-05-06 17:19 | 52.30812 | 4.77584 | 16 ft | 18 kts | 327° |
| 2026-05-06 17:20 | 52.30835 | 4.77407 | 14 ft | 16 kts | 271° |
| 2026-05-06 17:20 | 52.30848 | 4.77249 | 10 ft | 11 kts | 298° |
| 2026-05-06 17:20 | 52.30865 | 4.77228 | 8 ft | 1 kts | 12° |
| 2026-05-06 17:20 | 52.30879 | 4.77237 | 8 ft | 3 kts | 20° |
| 2026-05-06 17:21 | 52.30891 | 4.77239 | 8 ft | 1 kts | 4° |
| 2026-05-06 17:21 | 52.30895 | 4.77239 | 8 ft | 0 kts | 3° |